createdAt,value
2023-04-13T00:00:12.198Z,98201.72
2023-04-13T00:00:43.574Z,98202.97
2023-04-13T00:01:15.025Z,98206.50
2023-04-13T00:01:46.535Z,98205.53
2023-04-13T00:02:18.069Z,98206.34
2023-04-13T00:02:49.799Z,98208.09
2023-04-13T00:03:21.430Z,98201.06
2023-04-13T00:03:53.264Z,98202.19
2023-04-13T00:04:24.761Z,98201.38
2023-04-13T00:04:56.188Z,98197.88
2023-04-13T00:05:27.754Z,98199.00
2023-04-13T00:05:59.153Z,98206.97
2023-04-13T00:06:30.702Z,98206.81
2023-04-13T00:07:02.197Z,98191.31
2023-04-13T00:07:36.188Z,98190.81
2023-04-13T00:08:07.574Z,98192.75
2023-04-13T00:08:42.032Z,98182.03
2023-04-13T00:09:13.425Z,98188.59
2023-04-13T00:09:44.813Z,98185.53
2023-04-13T00:10:18.584Z,98185.06
2023-04-13T00:10:50.081Z,98178.81
2023-04-13T00:11:21.565Z,98185.72
2023-04-13T00:11:53.049Z,98190.34
2023-04-13T00:12:24.482Z,98190.34
2023-04-13T00:12:55.929Z,98175.94
2023-04-13T00:13:27.419Z,98179.78
2023-04-13T00:13:59.267Z,98173.22
2023-04-13T00:14:30.894Z,98171.47
2023-04-13T00:15:05.278Z,98173.38
2023-04-13T00:15:36.778Z,98173.38
2023-04-13T00:16:08.351Z,98178.81
2023-04-13T00:16:39.863Z,98173.22
2023-04-13T00:17:11.367Z,98175.94
2023-04-13T00:17:42.854Z,98175.63
2023-04-13T00:18:14.358Z,98176.75
2023-04-13T00:18:45.942Z,98178.34
2023-04-13T00:19:17.421Z,98172.75
2023-04-13T00:19:48.883Z,98171.63
2023-04-13T00:20:20.320Z,98175.94
2023-04-13T00:20:51.737Z,98178.03
2023-04-13T00:21:23.173Z,98167.78
2023-04-13T00:21:54.703Z,98174.03
2023-04-13T00:22:26.126Z,98174.34
2023-04-13T00:22:57.636Z,98182.50
2023-04-13T00:23:29.024Z,98169.72
2023-04-13T00:24:00.726Z,98166.19
2023-04-13T00:24:32.218Z,98169.25
2023-04-13T00:25:03.706Z,98170.84
2023-04-13T00:25:35.197Z,98167.16
2023-04-13T00:26:06.618Z,98174.03
2023-04-13T00:26:38.073Z,98165.06
2023-04-13T00:27:09.492Z,98167.47
2023-04-13T00:27:40.908Z,98162.69
2023-04-13T00:28:12.390Z,98161.22
2023-04-13T00:28:43.847Z,98157.72
2023-04-13T00:29:15.317Z,98159.97
2023-04-13T00:29:46.856Z,98155.31
2023-04-13T00:30:18.275Z,98151.81
2023-04-13T00:30:49.751Z,98156.91
2023-04-13T00:31:21.280Z,98153.41
2023-04-13T00:31:52.880Z,98154.03
2023-04-13T00:32:24.327Z,98154.84
2023-04-13T00:32:55.826Z,98165.41
2023-04-13T00:33:27.349Z,98148.59
2023-04-13T00:33:59.019Z,98155.97
2023-04-13T00:34:30.597Z,98151.66
2023-04-13T00:35:02.113Z,98156.28
2023-04-13T00:35:33.764Z,98152.59
2023-04-13T00:36:05.302Z,98157.06
2023-04-13T00:36:36.790Z,98151.47
2023-04-13T00:37:08.257Z,98152.13
2023-04-13T00:37:44.335Z,98150.53
2023-04-13T00:38:15.790Z,98141.25
2023-04-13T00:38:47.256Z,98151.31
2023-04-13T00:39:20.451Z,98149.56
2023-04-13T00:39:51.888Z,98142.03
2023-04-13T00:40:23.353Z,98150.53
2023-04-13T00:40:57.418Z,98148.75
2023-04-13T00:41:28.785Z,98142.38
2023-04-13T00:42:00.207Z,98144.75
2023-04-13T00:42:31.630Z,98145.88
2023-04-13T00:43:03.107Z,98140.59
2023-04-13T00:43:34.555Z,98146.19
2023-04-13T00:44:06.020Z,98142.66
2023-04-13T00:44:37.493Z,98143.63
2023-04-13T00:45:08.933Z,98138.19
2023-04-13T00:45:40.408Z,98140.91
2023-04-13T00:46:11.895Z,98139.81
2023-04-13T00:46:43.459Z,98145.25
2023-04-13T00:47:17.907Z,98139.81
2023-04-13T00:47:49.407Z,98142.84
2023-04-13T00:48:20.965Z,98147.34
2023-04-13T00:48:52.397Z,98151.97
2023-04-13T00:49:23.836Z,98144.63
2023-04-13T00:49:55.290Z,98143.38
2023-04-13T00:50:26.704Z,98137.06
2023-04-13T00:50:58.208Z,98146.69
2023-04-13T00:51:29.637Z,98132.28
2023-04-13T00:52:01.146Z,98141.09
2023-04-13T00:52:32.587Z,98151.66
2023-04-13T00:53:04.014Z,98137.56
2023-04-13T00:53:35.664Z,98143.81
2023-04-13T00:54:07.199Z,98139.81
2023-04-13T00:54:38.669Z,98137.72
2023-04-13T00:55:10.063Z,98146.53
2023-04-13T00:55:43.514Z,98148.81
2023-04-13T00:56:14.946Z,98147.69
2023-04-13T00:56:46.443Z,98133.41
2023-04-13T00:57:17.817Z,98143.81
2023-04-13T00:57:49.274Z,98135.81
2023-04-13T00:58:20.711Z,98131.16
2023-04-13T00:58:52.123Z,98136.81
2023-04-13T00:59:23.656Z,98152.44
2023-04-13T00:59:55.120Z,98150.84
2023-04-13T01:00:26.546Z,98131.50
2023-04-13T01:00:57.972Z,98147.00
2023-04-13T01:01:29.443Z,98139.66
2023-04-13T01:02:00.944Z,98140.78
2023-04-13T01:02:34.625Z,98136.44
2023-04-13T01:03:08.997Z,98130.22
2023-04-13T01:03:40.510Z,98143.00
2023-04-13T01:04:11.984Z,98133.63
2023-04-13T01:04:46.247Z,98135.22
2023-04-13T01:05:17.707Z,98128.66
2023-04-13T01:05:49.124Z,98123.53
2023-04-13T01:06:20.522Z,98133.13
2023-04-13T01:06:51.934Z,98123.84
2023-04-13T01:07:25.604Z,98132.34
2023-04-13T01:07:57.071Z,98132.19
2023-04-13T01:08:28.526Z,98120.19
2023-04-13T01:09:00.005Z,98130.41
2023-04-13T01:09:31.496Z,98141.63
2023-04-13T01:10:05.091Z,98132.81
2023-04-13T01:10:36.653Z,98135.53
2023-04-13T01:11:08.128Z,98131.38
2023-04-13T01:11:39.598Z,98128.19
2023-04-13T01:12:11.058Z,98136.81
2023-04-13T01:12:42.528Z,98130.22
2023-04-13T01:13:14.010Z,98127.16
2023-04-13T01:13:45.418Z,98133.28
2023-04-13T01:14:18.594Z,98133.72
2023-04-13T01:14:50.061Z,98124.66
2023-04-13T01:15:21.473Z,98117.63
2023-04-13T01:15:52.949Z,98133.13
2023-04-13T01:16:24.501Z,98126.56
2023-04-13T01:16:56.060Z,98125.44
2023-04-13T01:17:27.548Z,98122.25
2023-04-13T01:17:59.076Z,98125.44
2023-04-13T01:18:30.601Z,98120.94
2023-04-13T01:19:02.008Z,98124.59
2023-04-13T01:19:33.504Z,98113.47
2023-04-13T01:20:05.058Z,98121.94
2023-04-13T01:20:36.444Z,98121.47
2023-04-13T01:21:07.898Z,98117.78
2023-04-13T01:21:39.385Z,98117.63
2023-04-13T01:22:10.814Z,98116.03
2023-04-13T01:22:42.202Z,98119.38
2023-04-13T01:23:13.709Z,98115.22
2023-04-13T01:23:45.158Z,98123.38
2023-04-13T01:24:16.726Z,98126.75
2023-04-13T01:24:51.089Z,98124.97
2023-04-13T01:25:22.595Z,98132.34
2023-04-13T01:25:54.069Z,98112.50
2023-04-13T01:26:25.568Z,98115.88
2023-04-13T01:26:57.124Z,98113.31
2023-04-13T01:27:28.576Z,98117.47
2023-04-13T01:28:00.039Z,98117.63
2023-04-13T01:28:32.562Z,98130.75
2023-04-13T01:29:04.017Z,98117.16
2023-04-13T01:29:35.426Z,98105.31
2023-04-13T01:30:06.857Z,98111.88
2023-04-13T01:30:38.841Z,98119.72
2023-04-13T01:31:10.313Z,98112.69
2023-04-13T01:31:43.274Z,98115.22
2023-04-13T01:32:14.726Z,98107.72
2023-04-13T01:32:46.165Z,98109.16
2023-04-13T01:33:17.597Z,98115.06
2023-04-13T01:33:49.029Z,98106.91
2023-04-13T01:34:20.440Z,98122.25
2023-04-13T01:34:51.861Z,98115.56
2023-04-13T01:35:23.379Z,98117.63
2023-04-13T01:35:56.655Z,98129.00
2023-04-13T01:36:28.143Z,98111.56
2023-04-13T01:36:59.585Z,98099.88
2023-04-13T01:37:31.030Z,98100.69
2023-04-13T01:38:02.563Z,98093.31
2023-04-13T01:38:34.158Z,98095.41
2023-04-13T01:39:08.281Z,98115.22
2023-04-13T01:39:39.851Z,98103.41
2023-04-13T01:40:11.648Z,98112.69
2023-04-13T01:40:43.152Z,98108.38
2023-04-13T01:41:14.641Z,98097.31
2023-04-13T01:41:46.183Z,98109.31
2023-04-13T01:42:17.793Z,98104.34
2023-04-13T01:42:49.311Z,98107.06
2023-04-13T01:43:20.847Z,98103.56
2023-04-13T01:43:52.247Z,98112.97
2023-04-13T01:44:23.724Z,98128.34
2023-04-13T01:44:56.617Z,98108.84
2023-04-13T01:45:28.059Z,98110.91
2023-04-13T01:45:59.449Z,98117.78
2023-04-13T01:46:30.982Z,98110.09
2023-04-13T01:47:02.510Z,98104.53
2023-04-13T01:47:34.047Z,98111.38
2023-04-13T01:48:07.762Z,98114.44
2023-04-13T01:48:39.270Z,98119.06
2023-04-13T01:49:10.696Z,98126.75
2023-04-13T01:49:42.188Z,98111.56
2023-04-13T01:50:13.624Z,98107.06
2023-04-13T01:50:45.063Z,98099.09
2023-04-13T01:51:16.565Z,98099.41
2023-04-13T01:51:47.944Z,98100.22
2023-04-13T01:52:19.444Z,98125.16
2023-04-13T01:52:50.971Z,98103.25
2023-04-13T01:53:22.477Z,98114.94
2023-04-13T01:53:53.906Z,98104.03
2023-04-13T01:54:25.412Z,98123.56
2023-04-13T01:55:03.744Z,98117.63
2023-04-13T01:55:35.156Z,98100.53
2023-04-13T01:56:06.600Z,98125.78
2023-04-13T01:56:38.139Z,98112.19
2023-04-13T01:57:10.631Z,98103.41
2023-04-13T01:57:42.124Z,98114.56
2023-04-13T01:58:16.501Z,98102.22
2023-04-13T01:58:47.942Z,98104.94
2023-04-13T01:59:19.392Z,98109.78
2023-04-13T01:59:50.862Z,98097.00
2023-04-13T02:00:22.384Z,98098.13
2023-04-13T02:00:53.851Z,98122.09
2023-04-13T02:01:25.408Z,98105.78
2023-04-13T02:01:56.882Z,98102.28
2023-04-13T02:02:28.463Z,98102.59
2023-04-13T02:03:00.175Z,98105.31
2023-04-13T02:03:34.367Z,98103.22
2023-04-13T02:04:05.999Z,98096.38
2023-04-13T02:04:37.497Z,98100.53
2023-04-13T02:05:08.926Z,98102.13
2023-04-13T02:05:43.291Z,98104.19
2023-04-13T02:06:14.714Z,98088.53
2023-04-13T02:06:48.536Z,98103.41
2023-04-13T02:07:20.033Z,98107.72
2023-04-13T02:07:51.432Z,98122.09
2023-04-13T02:08:23.101Z,98100.69
2023-04-13T02:08:54.514Z,98099.41
2023-04-13T02:09:25.979Z,98094.78
2023-04-13T02:09:57.359Z,98106.28
2023-04-13T02:10:28.806Z,98106.28
2023-04-13T02:11:00.341Z,98096.03
2023-04-13T02:11:31.835Z,98091.88
2023-04-13T02:12:03.293Z,98094.59
2023-04-13T02:12:34.706Z,98098.91
2023-04-13T02:13:08.498Z,98091.88
2023-04-13T02:13:40.009Z,98102.75
2023-04-13T02:14:11.490Z,98094.28
2023-04-13T02:14:42.890Z,98093.00
2023-04-13T02:15:14.307Z,98115.06
2023-04-13T02:15:45.785Z,98101.94
2023-04-13T02:16:17.294Z,98100.69
2023-04-13T02:16:51.594Z,98096.38
2023-04-13T02:17:23.114Z,98103.72
2023-04-13T02:17:54.688Z,98092.19
2023-04-13T02:18:26.194Z,98102.28
2023-04-13T02:18:57.644Z,98092.53
2023-04-13T02:19:29.109Z,98112.84
2023-04-13T02:20:00.572Z,98089.81
2023-04-13T02:20:32.024Z,98107.06
2023-04-13T02:21:03.429Z,98103.56
2023-04-13T02:21:34.894Z,98113.94
2023-04-13T02:22:06.367Z,98103.88
2023-04-13T02:22:37.811Z,98098.28
2023-04-13T02:23:09.295Z,98104.84
2023-04-13T02:23:40.770Z,98104.69
2023-04-13T02:24:12.280Z,98094.94
2023-04-13T02:24:43.690Z,98099.72
2023-04-13T02:25:15.201Z,98100.53
2023-04-13T02:25:47.890Z,98100.22
2023-04-13T02:26:19.726Z,98107.09
2023-04-13T02:26:51.228Z,98106.28
2023-04-13T02:27:22.766Z,98099.09
2023-04-13T02:27:54.306Z,98104.53
2023-04-13T02:28:25.721Z,98101.66
2023-04-13T02:28:57.172Z,98099.25
2023-04-13T02:29:28.572Z,98098.13
2023-04-13T02:29:59.996Z,98103.06
2023-04-13T02:30:31.420Z,98097.16
2023-04-13T02:31:02.909Z,98101.81
2023-04-13T02:31:34.382Z,98100.22
2023-04-13T02:32:05.943Z,98098.59
2023-04-13T02:32:37.473Z,98107.56
2023-04-13T02:33:10.635Z,98117.63
2023-04-13T02:33:42.079Z,98102.44
2023-04-13T02:34:13.483Z,98106.78
2023-04-13T02:34:44.942Z,98108.69
2023-04-13T02:35:16.384Z,98109.47
2023-04-13T02:35:47.846Z,98112.19
2023-04-13T02:36:19.382Z,98105.66
2023-04-13T02:36:50.898Z,98105.97
2023-04-13T02:37:22.292Z,98101.00
2023-04-13T02:37:53.871Z,98097.50
2023-04-13T02:38:25.327Z,98102.13
2023-04-13T02:38:56.742Z,98104.03
2023-04-13T02:39:28.150Z,98105.31
2023-04-13T02:39:59.590Z,98109.97
2023-04-13T02:40:31.085Z,98103.56
2023-04-13T02:41:02.547Z,98106.28
2023-04-13T02:41:33.997Z,98100.06
2023-04-13T02:42:05.523Z,98122.59
2023-04-13T02:42:36.948Z,98111.72
2023-04-13T02:43:08.395Z,98114.94
2023-04-13T02:43:44.203Z,98117.63
2023-04-13T02:44:15.634Z,98113.16
2023-04-13T02:44:49.708Z,98112.19
2023-04-13T02:45:21.216Z,98107.88
2023-04-13T02:45:52.694Z,98104.69
2023-04-13T02:46:24.243Z,98104.69
2023-04-13T02:46:55.768Z,98122.75
2023-04-13T02:47:27.277Z,98106.91
2023-04-13T02:47:58.687Z,98110.28
2023-04-13T02:48:30.223Z,98094.28
2023-04-13T02:49:01.786Z,98091.91
2023-04-13T02:49:33.238Z,98105.16
2023-04-13T02:50:04.700Z,98095.88
2023-04-13T02:50:36.166Z,98101.19
2023-04-13T02:51:07.636Z,98094.16
2023-04-13T02:51:39.118Z,98095.25
2023-04-13T02:52:10.539Z,98099.25
2023-04-13T02:52:41.942Z,98100.84
2023-04-13T02:53:13.333Z,98099.72
2023-04-13T02:53:44.751Z,98097.34
2023-04-13T02:54:16.253Z,98100.53
2023-04-13T02:54:47.783Z,98099.41
2023-04-13T02:55:19.215Z,98095.09
2023-04-13T02:55:54.704Z,98093.97
2023-04-13T02:56:27.724Z,98087.41
2023-04-13T02:56:59.143Z,98093.97
2023-04-13T02:57:30.517Z,98093.81
2023-04-13T02:58:02.054Z,98097.34
2023-04-13T02:58:33.529Z,98103.56
2023-04-13T02:59:04.986Z,98080.22
2023-04-13T02:59:36.476Z,98094.28
2023-04-13T03:00:07.962Z,98086.13
2023-04-13T03:00:39.387Z,98097.50
2023-04-13T03:01:10.851Z,98089.34
2023-04-13T03:01:42.477Z,98086.13
2023-04-13T03:02:13.972Z,98108.22
2023-04-13T03:02:45.533Z,98115.56
2023-04-13T03:03:17.181Z,98109.34
2023-04-13T03:03:50.433Z,98097.66
2023-04-13T03:04:21.924Z,98092.22
2023-04-13T03:04:53.505Z,98078.63
2023-04-13T03:05:24.945Z,98090.63
2023-04-13T03:05:56.412Z,98093.81
2023-04-13T03:06:27.867Z,98099.56
2023-04-13T03:06:59.346Z,98098.13
2023-04-13T03:07:30.797Z,98091.88
2023-04-13T03:08:02.227Z,98106.13
2023-04-13T03:08:33.686Z,98094.78
2023-04-13T03:09:05.111Z,98094.28
2023-04-13T03:09:38.016Z,98095.09
2023-04-13T03:10:09.522Z,98090.78
2023-04-13T03:10:44.024Z,98096.53
2023-04-13T03:11:15.438Z,98087.59
2023-04-13T03:11:46.900Z,98084.88
2023-04-13T03:12:18.288Z,98101.50
2023-04-13T03:12:49.774Z,98097.66
2023-04-13T03:13:21.245Z,98081.03
2023-04-13T03:13:52.709Z,98084.22
2023-04-13T03:14:24.157Z,98088.84
2023-04-13T03:14:58.554Z,98088.06
2023-04-13T03:15:30.075Z,98092.22
2023-04-13T03:16:01.668Z,98084.06
2023-04-13T03:16:33.221Z,98089.19
2023-04-13T03:17:04.903Z,98106.63
2023-04-13T03:17:36.548Z,98105.50
2023-04-13T03:18:08.095Z,98085.81
2023-04-13T03:18:39.522Z,98095.09
2023-04-13T03:19:13.753Z,98101.31
2023-04-13T03:19:45.223Z,98088.06
2023-04-13T03:20:16.731Z,98101.47
2023-04-13T03:20:50.531Z,98103.56
2023-04-13T03:21:21.994Z,98108.69
2023-04-13T03:21:53.449Z,98100.06
2023-04-13T03:22:24.849Z,98104.03
2023-04-13T03:22:56.293Z,98092.53
2023-04-13T03:23:30.082Z,98103.06
2023-04-13T03:24:01.532Z,98099.41
2023-04-13T03:24:33.058Z,98097.97
2023-04-13T03:25:04.474Z,98098.28
2023-04-13T03:25:35.917Z,98097.97
2023-04-13T03:26:09.208Z,98092.53
2023-04-13T03:26:42.767Z,98098.75
2023-04-13T03:27:14.307Z,98099.41
2023-04-13T03:27:45.823Z,98105.31
2023-04-13T03:28:17.268Z,98096.38
2023-04-13T03:28:48.855Z,98106.44
2023-04-13T03:29:20.436Z,98107.41
2023-04-13T03:29:52.036Z,98102.59
2023-04-13T03:30:23.604Z,98108.84
2023-04-13T03:30:55.264Z,98142.13
2023-04-13T03:31:27.031Z,98103.25
2023-04-13T03:31:58.475Z,98138.13
2023-04-13T03:32:29.987Z,98108.22
2023-04-13T03:33:01.645Z,98098.94
2023-04-13T03:33:33.197Z,98114.28
2023-04-13T03:34:04.625Z,98108.69
2023-04-13T03:34:36.070Z,98117.63
2023-04-13T03:35:07.487Z,98100.84
2023-04-13T03:35:38.914Z,98128.19
2023-04-13T03:36:10.393Z,98110.94
2023-04-13T03:36:41.867Z,98090.44
2023-04-13T03:37:13.345Z,98106.78
2023-04-13T03:37:44.820Z,98112.19
2023-04-13T03:38:16.362Z,98112.84
2023-04-13T03:38:47.801Z,98120.03
2023-04-13T03:39:19.245Z,98114.28
2023-04-13T03:39:53.204Z,98112.69
2023-04-13T03:40:24.666Z,98114.28
2023-04-13T03:40:56.079Z,98104.19
2023-04-13T03:41:27.554Z,98116.53
2023-04-13T03:42:00.226Z,98102.59
2023-04-13T03:42:31.714Z,98101.31
2023-04-13T03:43:03.268Z,98113.31
2023-04-13T03:43:34.709Z,98126.91
2023-04-13T03:44:13.692Z,98116.19
2023-04-13T03:44:45.142Z,98123.06
2023-04-13T03:45:16.648Z,98127.06
2023-04-13T03:45:48.082Z,98124.34
2023-04-13T03:46:19.522Z,98118.91
2023-04-13T03:46:51.033Z,98125.16
2023-04-13T03:47:22.574Z,98123.06
2023-04-13T03:47:54.119Z,98113.81
2023-04-13T03:48:30.575Z,98113.81
2023-04-13T03:49:02.005Z,98121.31
2023-04-13T03:49:33.414Z,98121.47
2023-04-13T03:50:04.896Z,98128.03
2023-04-13T03:50:36.357Z,98125.78
2023-04-13T03:51:07.865Z,98131.06
2023-04-13T03:51:39.312Z,98134.44
2023-04-13T03:52:10.756Z,98123.41
2023-04-13T03:52:42.805Z,98131.22
2023-04-13T03:53:14.247Z,98120.38
2023-04-13T03:53:45.674Z,98114.13
2023-04-13T03:54:17.122Z,98119.09
2023-04-13T03:54:48.616Z,98129.97
2023-04-13T03:55:20.202Z,98119.56
2023-04-13T03:55:51.700Z,98124.53
2023-04-13T03:56:23.155Z,98130.13
2023-04-13T03:56:56.431Z,98132.50
2023-04-13T03:57:27.899Z,98130.75
2023-04-13T03:58:00.949Z,98130.59
2023-04-13T03:58:35.261Z,98125.00
2023-04-13T03:59:06.705Z,98116.22
2023-04-13T03:59:39.888Z,98127.25
2023-04-13T04:00:11.358Z,98124.19
2023-04-13T04:00:42.734Z,98133.16
2023-04-13T04:01:14.154Z,98127.72
2023-04-13T04:01:45.550Z,98128.03
2023-04-13T04:02:17.213Z,98126.44
2023-04-13T04:02:48.858Z,98147.06
2023-04-13T04:03:23.418Z,98131.22
2023-04-13T04:03:54.978Z,98126.28
2023-04-13T04:04:26.672Z,98133.81
2023-04-13T04:04:58.390Z,98129.16
2023-04-13T04:05:29.862Z,98135.41
2023-04-13T04:06:01.276Z,98123.72
2023-04-13T04:06:32.790Z,98138.13
2023-04-13T04:07:04.307Z,98130.94
2023-04-13T04:07:35.829Z,98152.03
2023-04-13T04:08:07.237Z,98125.31
2023-04-13T04:08:41.598Z,98130.75
2023-04-13T04:09:13.143Z,98134.13
2023-04-13T04:09:44.614Z,98137.31
2023-04-13T04:10:16.049Z,98130.28
2023-04-13T04:10:50.392Z,98133.47
2023-04-13T04:11:21.810Z,98129.00
2023-04-13T04:11:58.416Z,98130.13
2023-04-13T04:12:29.847Z,98142.59
2023-04-13T04:13:01.264Z,98134.28
2023-04-13T04:13:32.679Z,98144.84
2023-04-13T04:14:04.174Z,98139.06
2023-04-13T04:14:35.616Z,98138.59
2023-04-13T04:15:12.775Z,98139.88
2023-04-13T04:15:44.206Z,98131.22
2023-04-13T04:16:15.631Z,98144.50
2023-04-13T04:16:47.246Z,98160.81
2023-04-13T04:17:18.705Z,98157.63
2023-04-13T04:17:50.179Z,98150.91
2023-04-13T04:18:21.627Z,98134.91
2023-04-13T04:18:53.088Z,98153.16
2023-04-13T04:19:24.799Z,98151.72
2023-04-13T04:19:56.208Z,98140.34
2023-04-13T04:20:27.703Z,98153.16
2023-04-13T04:20:59.113Z,98159.22
2023-04-13T04:21:30.560Z,98154.91
2023-04-13T04:22:02.027Z,98154.59
2023-04-13T04:22:33.468Z,98156.53
2023-04-13T04:23:04.933Z,98161.94
2023-04-13T04:23:36.410Z,98145.63
2023-04-13T04:24:07.822Z,98158.91
2023-04-13T04:24:39.327Z,98166.44
2023-04-13T04:25:10.776Z,98151.56
2023-04-13T04:25:44.778Z,98158.59
2023-04-13T04:26:16.147Z,98160.50
2023-04-13T04:26:47.753Z,98156.19
2023-04-13T04:27:19.306Z,98150.13
2023-04-13T04:27:50.823Z,98168.34
2023-04-13T04:28:22.323Z,98153.94
2023-04-13T04:28:53.764Z,98160.50
2023-04-13T04:29:25.201Z,98155.88
2023-04-13T04:29:56.679Z,98157.78
2023-04-13T04:30:28.193Z,98161.31
2023-04-13T04:30:59.604Z,98161.31
2023-04-13T04:31:31.121Z,98156.81
2023-04-13T04:32:02.715Z,98145.63
2023-04-13T04:32:34.254Z,98162.59
2023-04-13T04:33:05.800Z,98148.34
2023-04-13T04:33:40.260Z,98160.03
2023-04-13T04:34:11.723Z,98151.53
2023-04-13T04:34:43.156Z,98149.47
2023-04-13T04:35:14.597Z,98155.22
2023-04-13T04:35:46.028Z,98163.72
2023-04-13T04:36:17.425Z,98164.03
2023-04-13T04:36:51.396Z,98161.78
2023-04-13T04:37:22.779Z,98169.16
2023-04-13T04:37:56.823Z,98155.06
2023-04-13T04:38:28.304Z,98164.03
2023-04-13T04:38:59.792Z,98169.78
2023-04-13T04:39:31.276Z,98171.22
2023-04-13T04:40:02.713Z,98162.09
2023-04-13T04:40:34.140Z,98163.06
2023-04-13T04:41:05.553Z,98176.19
2023-04-13T04:41:36.991Z,98149.94
2023-04-13T04:42:08.426Z,98166.09
2023-04-13T04:42:39.870Z,98162.91
2023-04-13T04:43:11.283Z,98170.91
2023-04-13T04:43:45.790Z,98173.94
2023-04-13T04:44:17.253Z,98160.03
2023-04-13T04:44:48.752Z,98158.44
2023-04-13T04:45:20.163Z,98172.34
2023-04-13T04:45:51.714Z,98167.22
2023-04-13T04:46:23.218Z,98179.69
2023-04-13T04:46:57.738Z,98174.25
2023-04-13T04:47:29.215Z,98175.22
2023-04-13T04:48:00.724Z,98178.72
2023-04-13T04:48:32.221Z,98172.50
2023-04-13T04:49:03.728Z,98181.44
2023-04-13T04:49:35.313Z,98181.78
2023-04-13T04:50:06.689Z,98181.78
2023-04-13T04:50:38.145Z,98171.06
2023-04-13T04:51:09.536Z,98197.13
2023-04-13T04:51:40.993Z,98186.56
2023-04-13T04:52:12.604Z,98179.06
2023-04-13T04:52:44.135Z,98176.97
2023-04-13T04:53:15.560Z,98188.97
2023-04-13T04:53:47.023Z,98188.97
2023-04-13T04:54:18.508Z,98176.34
2023-04-13T04:54:49.991Z,98197.44
2023-04-13T04:55:21.390Z,98179.69
2023-04-13T04:55:52.804Z,98186.25
2023-04-13T04:56:24.248Z,98184.50
2023-04-13T04:56:55.659Z,98184.00
2023-04-13T04:57:29.472Z,98192.81
2023-04-13T04:58:01.124Z,98189.28
2023-04-13T04:58:32.559Z,98186.72
2023-04-13T04:59:03.973Z,98180.81
2023-04-13T04:59:37.304Z,98186.72
2023-04-13T05:00:08.850Z,98198.09
2023-04-13T05:00:40.292Z,98184.81
2023-04-13T05:01:11.788Z,98183.53
2023-04-13T05:01:43.569Z,98186.25
2023-04-13T05:02:15.310Z,98192.00
2023-04-13T05:02:46.935Z,98192.00
2023-04-13T05:03:18.467Z,98194.88
2023-04-13T05:03:49.971Z,98198.72
2023-04-13T05:04:21.372Z,98205.75
2023-04-13T05:04:52.906Z,98197.13
2023-04-13T05:05:24.491Z,98204.16
2023-04-13T05:05:58.801Z,98199.84
2023-04-13T05:06:30.250Z,98200.66
2023-04-13T05:07:01.664Z,98193.13
2023-04-13T05:07:33.152Z,98200.81
2023-04-13T05:08:04.617Z,98196.50
2023-04-13T05:08:36.165Z,98212.31
2023-04-13T05:09:10.492Z,98210.72
2023-04-13T05:09:41.902Z,98221.59
2023-04-13T05:10:13.328Z,98214.25
2023-04-13T05:10:44.829Z,98205.94
2023-04-13T05:11:16.284Z,98213.44
2023-04-13T05:11:49.546Z,98211.84
2023-04-13T05:12:20.972Z,98223.53
2023-04-13T05:12:52.418Z,98208.81
2023-04-13T05:13:23.837Z,98213.44
2023-04-13T05:13:55.283Z,98210.41
2023-04-13T05:14:26.677Z,98215.84
2023-04-13T05:14:58.091Z,98222.88
2023-04-13T05:15:29.511Z,98222.09
2023-04-13T05:16:01.021Z,98221.28
2023-04-13T05:16:32.551Z,98232.94
2023-04-13T05:17:04.005Z,98216.31
2023-04-13T05:17:35.591Z,98229.13
2023-04-13T05:18:07.061Z,98237.91
2023-04-13T05:18:44.085Z,98226.56
2023-04-13T05:19:15.512Z,98232.16
2023-04-13T05:19:46.942Z,98226.88
2023-04-13T05:20:23.958Z,98228.97
2023-04-13T05:20:55.438Z,98236.78
2023-04-13T05:21:26.926Z,98238.72
2023-04-13T05:22:02.416Z,98237.91
2023-04-13T05:22:36.967Z,98244.94
2023-04-13T05:23:08.388Z,98239.50
2023-04-13T05:23:39.929Z,98244.16
2023-04-13T05:24:11.403Z,98236.31
2023-04-13T05:24:42.861Z,98243.34
2023-04-13T05:25:14.291Z,98236.63
2023-04-13T05:25:45.757Z,98233.75
2023-04-13T05:26:18.747Z,98242.38
2023-04-13T05:26:50.408Z,98248.78
2023-04-13T05:27:21.860Z,98242.88
2023-04-13T05:27:53.361Z,98248.78
2023-04-13T05:28:24.770Z,98261.25
2023-04-13T05:28:56.320Z,98247.34
2023-04-13T05:29:27.840Z,98244.31
2023-04-13T05:29:59.214Z,98247.03
2023-04-13T05:30:30.710Z,98246.22
2023-04-13T05:31:02.166Z,98249.09
2023-04-13T05:31:33.706Z,98248.78
2023-04-13T05:32:05.380Z,98254.06
2023-04-13T05:32:36.869Z,98259.34
2023-04-13T05:33:08.351Z,98252.47
2023-04-13T05:33:41.730Z,98250.88
2023-04-13T05:34:13.167Z,98252.78
2023-04-13T05:34:44.608Z,98250.53
2023-04-13T05:35:16.038Z,98249.09
2023-04-13T05:35:47.427Z,98258.38
2023-04-13T05:36:20.611Z,98253.25
2023-04-13T05:36:52.020Z,98256.47
2023-04-13T05:37:23.488Z,98254.06
2023-04-13T05:37:56.960Z,98260.78
2023-04-13T05:38:28.637Z,98256.63
2023-04-13T05:39:00.877Z,98257.75
2023-04-13T05:39:32.413Z,98262.69
2023-04-13T05:40:03.840Z,98259.34
2023-04-13T05:40:35.276Z,98265.91
2023-04-13T05:41:06.759Z,98261.91
2023-04-13T05:41:38.149Z,98264.94
2023-04-13T05:42:09.636Z,98261.91
2023-04-13T05:42:41.084Z,98267.81
2023-04-13T05:43:12.521Z,98269.09
2023-04-13T05:43:44.010Z,98267.66
2023-04-13T05:44:15.473Z,98271.34
2023-04-13T05:44:46.960Z,98266.69
2023-04-13T05:45:18.381Z,98261.41
2023-04-13T05:45:49.926Z,98262.69
2023-04-13T05:46:21.583Z,98265.25
2023-04-13T05:46:53.092Z,98263.34
2023-04-13T05:47:24.622Z,98260.16
2023-04-13T05:47:56.267Z,98267.66
2023-04-13T05:48:27.720Z,98271.97
2023-04-13T05:48:59.438Z,98273.56
2023-04-13T05:49:31.150Z,98274.84
2023-04-13T05:50:02.579Z,98279.97
2023-04-13T05:50:36.264Z,98269.91
2023-04-13T05:51:07.679Z,98276.25
2023-04-13T05:51:41.594Z,98282.50
2023-04-13T05:52:13.078Z,98278.66
2023-04-13T05:52:44.658Z,98284.25
2023-04-13T05:53:16.108Z,98282.19
2023-04-13T05:53:47.585Z,98281.56
2023-04-13T05:54:19.038Z,98283.81
2023-04-13T05:54:50.639Z,98281.09
2023-04-13T05:55:22.045Z,98271.81
2023-04-13T05:55:53.518Z,98292.78
2023-04-13T05:56:27.565Z,98282.69
2023-04-13T05:56:59.084Z,98285.91
2023-04-13T05:57:30.631Z,98284.91
2023-04-13T05:58:02.170Z,98282.50
2023-04-13T05:58:33.638Z,98293.88
2023-04-13T05:59:05.112Z,98288.63
2023-04-13T05:59:36.601Z,98287.00
2023-04-13T06:00:08.161Z,98297.38
2023-04-13T06:00:39.591Z,98291.34
2023-04-13T06:01:10.992Z,98291.81
2023-04-13T06:01:42.463Z,98293.38
2023-04-13T06:02:13.940Z,98291.94
2023-04-13T06:02:48.214Z,98294.97
2023-04-13T06:03:19.863Z,98295.78
2023-04-13T06:03:54.254Z,98298.19
2023-04-13T06:04:25.952Z,98304.75
2023-04-13T06:04:57.508Z,98298.50
2023-04-13T06:05:30.938Z,98297.06
2023-04-13T06:06:02.396Z,98304.59
2023-04-13T06:06:36.066Z,98305.84
2023-04-13T06:07:09.608Z,98303.47
2023-04-13T06:07:41.077Z,98309.84
2023-04-13T06:08:12.549Z,98298.97
2023-04-13T06:08:44.023Z,98311.31
2023-04-13T06:09:15.507Z,98313.22
2023-04-13T06:09:46.920Z,98306.19
2023-04-13T06:10:18.419Z,98311.78
2023-04-13T06:10:49.865Z,98325.38
2023-04-13T06:11:21.288Z,98314.66
2023-04-13T06:11:52.760Z,98320.59
2023-04-13T06:12:24.363Z,98330.81
2023-04-13T06:12:55.803Z,98319.47
2023-04-13T06:13:28.660Z,98320.25